Bordeaux, France

3:48 AM CEST on October 22, 2014 (GMT +0200)
Merignac | Change Station
CLOSE
Current Station
Airport
Location: Bordeaux,
Elevation: 177 ft
Nearby Weather Stations

Elev 177 ft 44.83 °N, 0.69 °W | Updated 18 minutes ago

Partly Cloudy
Partly Cloudy
52 °F
Feels Like 52 °F
N
1
Wind Variable Wind from Variable

Today
High -- | Low -- °F
--% Chance of Precip.
Yesterday
High -- | Low -- °F
Precip. -- in
8:27 AM 7:06 PM
Waning Crescent, 3% visible
Pressure 30.42 in
Visibility 6.2 miles
Clouds Few 4700 ft
Dew Point 45 °F
Humidity 76%
Rainfall 0.00 in
Snow Depth Not available.
UV 0 out of 12
Pollen Not available.
Air Quality Not available.
Flu Activity Not available.
METAR LFBD 220130Z AUTO VRB01KT 9999 FEW047 11/07 Q1030

More Conditions Fewer Conditions

Pressure 30.42 in
Visibility 6.2 miles
Clouds Few 4700 ft
Dew Point 45 °F
Humidity 76%
Rainfall 0.00 in
Snow Depth Not available.
UV 0 out of 12
Pollen Not available.
Air Quality Not available.
Flu Activity Not available.
METAR LFBD 220130Z AUTO VRB01KT 9999 FEW047 11/07 Q1030

More Conditions Fewer Conditions

10-Day Weather Forecast

Almanac

Astronomy

Oct. 22, 2014 Rise Set
Actual Time 8:27 AM CEST 7:06 PM CEST
Civil Twilight 7:57 AM CEST 7:36 PM CEST
Nautical Twilight 7:23 AM CEST 8:10 PM CEST
Astronomical Twilight 6:49 AM CEST 8:44 PM CEST
Moon 6:50 AM CEST 6:27 PM CEST
Length of Visible Light 11h 39m
Length of Day
10h 39m
Tomorrow will be 2m 56s shorter.
Waning Crescent, 3% of the Moon is Illuminated
Oct 21
Waning Crescent
Oct 23
New
Oct 30
First Quarter
Nov 6
Full
Nov 14
Last Quarter

Yesterday's Extremes

Country Highs Country Lows

Community

WunderPhotos

Upload Photos

1,763,843 photos uploaded!

Nearby

Snow Depth

Not available.

Earthquake Activity

City Distance Mag. Time & Date
No recent earthquake activity has been reported nearby.
Minimum magnitude displayed is 2.5.

Coastal Water Temperatures

Place Temperature
No Stations Reporting

Nearby Weather Stations